Time;durP1;ratioP1;P1;durP2;ratioP2;P2;SDS_P1;SDS_P2;PMS_P1;PMS_P2;Temp;Humidity;BMP_temperature;BMP_pressure;BME280_temperature;BME280_humidity;BME280_pressure;Samples;Min_cycle;Max_cycle;Signal;HPM_P1;HPM_P2
2023/01/29 00:01:59;;;;;;;2.38;2.10;;;14.60;57.50;;;;;;5051968;28;20072;-75
2023/01/29 00:04:25;;;;;;;2.53;2.30;;;14.60;56.90;;;;;;5053383;28;20069;-78
2023/01/29 00:06:50;;;;;;;2.40;2.17;;;14.60;56.90;;;;;;5053479;28;20060;-78
2023/01/29 00:09:17;;;;;;;2.58;2.38;;;14.50;56.90;;;;;;5053084;28;20033;-78
2023/01/29 00:11:42;;;;;;;4.05;2.40;;;14.50;56.90;;;;;;5053261;28;20025;-78
2023/01/29 00:14:08;;;;;;;2.83;1.98;;;14.60;57.60;;;;;;5053257;28;20029;-78
2023/01/29 00:16:33;;;;;;;5.32;2.22;;;14.50;57.00;;;;;;5053211;28;20021;-78
2023/01/29 00:19:01;;;;;;;1.77;1.67;;;14.50;57.10;;;;;;5053486;28;20029;-78
2023/01/29 00:21:27;;;;;;;2.22;1.85;;;14.50;57.20;;;;;;5053535;28;20021;-78
2023/01/29 00:23:54;;;;;;;1.63;1.52;;;14.50;57.30;;;;;;5053094;28;20044;-75
2023/01/29 00:26:20;;;;;;;2.08;1.65;;;14.50;57.30;;;;;;5053104;28;20384;-76
2023/01/29 00:28:45;;;;;;;2.88;1.98;;;14.50;57.30;;;;;;5053185;28;20025;-76
2023/01/29 00:31:19;;;;;;;2.13;1.75;;;14.60;57.40;;;;;;5052930;28;20104;-75
2023/01/29 00:33:45;;;;;;;1.85;1.58;;;14.50;57.30;;;;;;5052931;28;20032;-75
2023/01/29 00:36:13;;;;;;;1.48;1.38;;;14.50;57.40;;;;;;5053195;28;20025;-76
2023/01/29 00:38:39;;;;;;;1.60;1.50;;;14.60;57.50;;;;;;5051495;28;20021;-75
2023/01/29 00:46:37;;;;;;;1.58;1.48;;;14.60;57.60;;;;;;5052908;28;20028;-79
2023/01/29 00:49:03;;;;;;;1.75;1.65;;;14.60;57.50;;;;;;5052625;28;20033;-79
2023/01/29 00:51:29;;;;;;;1.50;1.40;;;14.60;57.50;;;;;;5052722;28;20025;-79
2023/01/29 00:53:57;;;;;;;1.50;1.33;;;14.60;57.50;;;;;;5052536;28;20090;-78
2023/01/29 00:56:23;;;;;;;1.55;1.45;;;14.60;57.50;;;;;;5052622;28;20021;-79
2023/01/29 00:58:49;;;;;;;2.20;1.35;;;14.60;57.50;;;;;;5052632;28;20029;-75
2023/01/29 01:01:15;;;;;;;1.90;1.70;;;14.60;57.50;;;;;;5064866;28;20044;-78
2023/01/29 01:03:41;;;;;;;2.00;1.80;;;14.60;57.50;;;;;;5072142;28;20036;-78
2023/01/29 01:06:09;;;;;;;2.58;2.10;;;14.60;57.50;;;;;;5072414;28;20098;-78
2023/01/29 01:11:20;;;;;;;1.90;1.30;;;14.60;57.50;;;;;;5072597;28;20036;-78
2023/01/29 01:13:46;;;;;;;1.90;1.80;;;14.60;64.80;;;;;;5072389;28;20035;-78
2023/01/29 01:16:17;;;;;;;1.67;1.55;;;14.60;57.50;;;;;;5072557;28;20024;-78
2023/01/29 01:18:43;;;;;;;1.40;1.30;;;14.60;57.50;;;;;;5072273;28;20020;-78
2023/01/29 01:21:08;;;;;;;2.38;1.60;;;14.60;57.50;;;;;;5071554;28;20082;-78
2023/01/29 01:23:34;;;;;;;1.40;1.30;;;14.60;57.50;;;;;;5072368;28;20040;-78
2023/01/29 01:26:00;;;;;;;1.65;1.55;;;14.60;57.40;;;;;;5072172;28;20024;-78
2023/01/29 01:28:26;;;;;;;1.63;1.48;;;14.60;57.50;;;;;;5072096;28;20491;-78
2023/01/29 01:30:52;;;;;;;1.63;1.35;;;14.60;57.50;;;;;;5072008;28;20021;-78
2023/01/29 01:33:18;;;;;;;1.40;1.30;;;14.60;57.50;;;;;;5071964;28;20032;-78
2023/01/29 01:35:43;;;;;;;1.98;1.52;;;14.60;57.50;;;;;;5072054;28;20027;-75
2023/01/29 01:38:09;;;;;;;1.25;1.10;;;14.60;57.50;;;;;;5072027;28;20021;-75
2023/01/29 01:40:35;;;;;;;2.00;1.58;;;14.60;57.50;;;;;;5072049;28;20021;-75
2023/01/29 01:43:01;;;;;;;1.20;1.10;;;14.60;57.50;;;;;;5071916;28;20083;-75
2023/01/29 01:45:36;;;;;;;1.50;1.40;;;14.60;57.50;;;;;;5071939;28;20040;-75
2023/01/29 01:48:23;;;;;;;1.50;1.30;;;14.60;57.50;;;;;;5072183;28;20035;-75
2023/01/29 01:50:55;;;;;;;1.50;1.40;;;14.60;57.40;;;;;;5071890;28;20035;-75
2023/01/29 01:53:27;;;;;;;0.95;0.95;;;14.60;57.50;;;;;;5071929;28;20119;-75
2023/01/29 01:56:02;;;;;;;1.27;1.20;;;14.60;57.50;;;;;;5072204;28;20024;-78
2023/01/29 01:58:35;;;;;;;1.52;1.10;;;14.60;57.50;;;;;;5071870;28;20024;-78
2023/01/29 02:01:03;;;;;;;1.63;1.15;;;14.60;57.50;;;;;;5071653;28;20052;-78
2023/01/29 02:11:50;;;;;;;1.80;1.23;;;14.60;57.50;;;;;;5072043;28;20401;-78
2023/01/29 02:14:16;;;;;;;0.95;0.93;;;14.60;58.00;;;;;;5071684;28;20032;-78
2023/01/29 02:16:42;;;;;;;1.23;1.10;;;14.60;57.40;;;;;;5071581;28;20086;-78
2023/01/29 02:19:20;;;;;;;1.98;1.38;;;14.60;57.40;;;;;;5071903;28;20025;-78
2023/01/29 02:21:51;;;;;;;1.63;1.40;;;14.60;57.30;;;;;;5071667;28;20031;-78
2023/01/29 02:24:39;;;;;;;1.20;1.10;;;14.70;57.40;;;;;;5071547;28;20024;-78
2023/01/29 02:27:26;;;;;;;1.70;1.10;;;14.60;57.30;;;;;;5071483;28;20029;-78
2023/01/29 02:30:01;;;;;;;1.33;0.90;;;14.70;57.30;;;;;;5071570;28;20483;-78
2023/01/29 02:32:36;;;;;;;1.20;1.10;;;14.60;57.20;;;;;;5072106;28;20053;-78
2023/01/29 02:35:28;;;;;;;1.20;1.10;;;14.70;57.40;;;;;;5075150;28;20368;-78
2023/01/29 02:38:17;;;;;;;1.48;1.38;;;14.60;57.30;;;;;;5075159;28;20486;-78
2023/01/29 02:40:45;;;;;;;1.70;1.60;;;14.60;57.30;;;;;;5075098;28;20111;-78
2023/01/29 02:43:34;;;;;;;1.40;1.30;;;14.60;57.40;;;;;;5074885;28;20032;-78
2023/01/29 02:46:14;;;;;;;1.80;1.70;;;14.60;57.30;;;;;;5075204;28;20059;-78
2023/01/29 02:49:00;;;;;;;1.92;1.23;;;14.60;57.30;;;;;;5074939;28;20460;-78
2023/01/29 02:51:35;;;;;;;1.88;1.40;;;14.60;57.30;;;;;;5075053;28;20047;-75
2023/01/29 02:54:15;;;;;;;1.60;1.20;;;14.60;57.30;;;;;;5074772;28;20454;-75
2023/01/29 02:57:09;;;;;;;2.33;1.85;;;14.60;57.20;;;;;;5074791;28;20028;-75
2023/01/29 02:59:42;;;;;;;2.35;1.90;;;14.60;57.20;;;;;;5074995;28;20404;-75
2023/01/29 03:02:12;;;;;;;1.50;1.40;;;14.60;57.30;;;;;;5074467;28;20498;-75
2023/01/29 03:04:48;;;;;;;1.40;1.30;;;14.60;57.40;;;;;;5074899;28;20390;-75
2023/01/29 03:07:39;;;;;;;2.17;1.40;;;14.60;57.30;;;;;;5074611;28;20099;-75
2023/01/29 03:10:14;;;;;;;1.20;1.17;;;14.60;57.30;;;;;;5074473;28;20081;-75
2023/01/29 03:12:40;;;;;;;1.95;1.13;;;14.60;57.20;;;;;;5074501;28;20025;-75
2023/01/29 03:15:16;;;;;;;2.28;1.70;;;14.60;57.40;;;;;;5074384;28;20318;-75
2023/01/29 03:17:53;;;;;;;1.33;1.00;;;14.50;57.30;;;;;;5074678;28;20104;-75
2023/01/29 03:20:25;;;;;;;1.60;1.38;;;14.50;57.30;;;;;;5074336;28;20053;-75
2023/01/29 03:23:07;;;;;;;1.30;1.20;;;14.50;57.30;;;;;;5074264;28;20032;-75
2023/01/29 03:34:33;;;;;;;1.40;1.30;;;14.50;57.30;;;;;;5074319;28;20093;-78
2023/01/29 03:37:07;;;;;;;1.35;1.25;;;14.50;57.30;;;;;;4972951;28;20041;-78
2023/01/29 03:39:34;;;;;;;1.27;1.17;;;14.50;57.30;;;;;;5062579;28;20073;-78
2023/01/29 03:42:11;;;;;;;1.70;1.27;;;14.50;57.40;;;;;;5073928;28;20036;-78
2023/01/29 03:45:15;;;;;;;2.58;1.48;;;14.50;57.30;;;;;;5073155;28;20068;-75
2023/01/29 03:47:43;;;;;;;1.23;1.10;;;14.50;57.30;;;;;;5018492;28;20032;-75
2023/01/29 03:50:32;;;;;;;1.40;1.30;;;14.50;57.30;;;;;;5074011;28;20085;-75
2023/01/29 03:53:09;;;;;;;1.88;1.63;;;14.50;57.30;;;;;;5073643;28;20036;-75
2023/01/29 03:55:53;;;;;;;1.30;1.20;;;14.50;57.20;;;;;;5073623;28;20045;-75
2023/01/29 03:58:38;;;;;;;2.00;1.30;;;14.40;57.80;;;;;;5073520;28;20032;-75
2023/01/29 04:01:16;;;;;;;2.30;2.10;;;14.50;57.20;;;;;;5073395;28;20045;-75
2023/01/29 04:04:02;;;;;;;2.88;1.50;;;14.50;57.20;;;;;;5073670;28;20133;-78
2023/01/29 04:06:33;;;;;;;2.00;1.67;;;14.40;57.20;;;;;;5073667;28;20024;-78
2023/01/29 04:09:22;;;;;;;1.60;1.40;;;14.40;57.20;;;;;;5073368;28;20491;-78
2023/01/29 04:12:02;;;;;;;1.63;1.38;;;14.40;57.10;;;;;;5073293;28;20032;-78
2023/01/29 04:14:30;;;;;;;2.08;1.88;;;14.40;57.20;;;;;;5073227;28;20024;-78
2023/01/29 04:17:00;;;;;;;1.50;1.40;;;14.40;57.20;;;;;;5073229;28;20139;-78
2023/01/29 04:19:26;;;;;;;2.30;1.73;;;14.40;57.20;;;;;;5073339;28;20090;-78
2023/01/29 04:22:09;;;;;;;1.70;1.58;;;14.40;57.20;;;;;;5073165;28;20275;-78
2023/01/29 04:24:36;;;;;;;1.95;1.85;;;14.40;57.10;;;;;;5073403;28;20390;-78
2023/01/29 04:27:28;;;;;;;2.92;2.20;;;14.40;57.10;;;;;;5073216;28;20017;-78
2023/01/29 04:30:19;;;;;;;2.70;2.50;;;14.40;57.00;;;;;;5073205;28;20020;-78
2023/01/29 04:33:16;;;;;;;2.20;1.90;;;14.40;57.00;;;;;;5072740;28;20032;-78
2023/01/29 04:35:50;;;;;;;2.50;2.30;;;14.40;57.00;;;;;;5072823;28;20029;-78
2023/01/29 04:38:25;;;;;;;2.05;1.70;;;14.30;57.00;;;;;;5072911;28;20036;-78
2023/01/29 04:41:02;;;;;;;2.60;2.00;;;14.40;57.10;;;;;;5072803;28;20506;-78
2023/01/29 04:43:54;;;;;;;2.25;1.85;;;14.40;57.70;;;;;;5072566;28;20072;-78
2023/01/29 04:46:45;;;;;;;2.15;1.95;;;14.30;57.70;;;;;;5059229;28;20048;-78
2023/01/29 04:49:33;;;;;;;3.03;2.28;;;14.30;57.60;;;;;;5061377;28;20045;-78
2023/01/29 04:52:29;;;;;;;1.83;1.67;;;14.30;57.00;;;;;;5072493;28;20115;-78
2023/01/29 04:55:03;;;;;;;2.75;2.13;;;14.30;56.90;;;;;;5072451;28;20032;-78
2023/01/29 04:57:52;;;;;;;2.10;1.90;;;14.30;57.00;;;;;;5071516;28;20063;-78
2023/01/29 05:00:26;;;;;;;2.72;2.30;;;14.30;57.00;;;;;;5072569;28;20048;-78
2023/01/29 05:02:52;;;;;;;1.95;1.75;;;14.30;57.00;;;;;;5072806;28;20086;-78
2023/01/29 05:05:19;;;;;;;2.92;1.92;;;14.30;57.00;;;;;;5072442;28;20032;-78
2023/01/29 05:07:46;;;;;;;2.30;2.10;;;14.30;57.00;;;;;;5072312;28;20107;-78
2023/01/29 05:10:15;;;;;;;1.90;1.80;;;14.30;57.10;;;;;;5072290;28;20024;-78
2023/01/29 05:12:45;;;;;;;2.35;2.15;;;14.30;57.00;;;;;;5072267;28;20107;-78
2023/01/29 05:15:15;;;;;;;2.10;1.77;;;14.30;56.80;;;;;;5072387;28;20540;-78
2023/01/29 05:17:41;;;;;;;2.22;2.03;;;14.30;56.90;;;;;;5072570;28;20028;-78
2023/01/29 05:20:09;;;;;;;2.38;2.15;;;13.60;56.60;;;;;;5072296;28;20031;-78
2023/01/29 05:22:38;;;;;;;2.60;2.40;;;14.20;56.90;;;;;;5072271;28;20035;-78
2023/01/29 05:25:26;;;;;;;3.08;2.30;;;14.20;56.90;;;;;;5072137;28;20036;-78
2023/01/29 05:28:04;;;;;;;2.55;2.17;;;14.20;56.90;;;;;;5072095;28;20021;-78
2023/01/29 05:30:35;;;;;;;1.85;1.70;;;14.20;56.90;;;;;;5072237;28;20154;-78
2023/01/29 05:33:02;;;;;;;1.83;1.73;;;14.20;56.90;;;;;;5072394;28;20023;-78
2023/01/29 05:35:29;;;;;;;2.40;1.88;;;14.20;56.90;;;;;;5072102;28;20029;-79
2023/01/29 05:37:55;;;;;;;2.83;2.40;;;14.20;56.90;;;;;;5072260;28;20029;-79
2023/01/29 05:40:23;;;;;;;2.00;1.80;;;14.20;56.90;;;;;;5072015;28;20027;-79
2023/01/29 05:42:50;;;;;;;3.25;1.88;;;14.20;56.90;;;;;;5072217;28;20024;-79
2023/01/29 05:45:17;;;;;;;2.53;1.73;;;14.20;56.90;;;;;;5072264;28;20057;-79
2023/01/29 05:47:44;;;;;;;2.53;2.05;;;14.20;57.00;;;;;;5072151;28;20017;-79
2023/01/29 05:50:10;;;;;;;1.75;1.65;;;14.20;57.10;;;;;;5071884;28;20033;-79
2023/01/29 05:52:36;;;;;;;2.00;1.80;;;14.20;57.10;;;;;;5072186;28;20415;-79
2023/01/29 05:55:02;;;;;;;2.03;1.75;;;14.20;57.00;;;;;;5071872;28;20103;-79
2023/01/29 05:57:28;;;;;;;2.15;1.92;;;14.20;57.10;;;;;;5072148;28;20379;-79
2023/01/29 05:59:54;;;;;;;2.45;1.80;;;14.10;57.00;;;;;;5071861;28;20445;-78
2023/01/29 06:02:21;;;;;;;2.30;2.10;;;14.20;57.10;;;;;;5071919;28;20103;-79
2023/01/29 06:04:47;;;;;;;2.10;1.50;;;14.10;57.10;;;;;;5071890;28;20027;-79
2023/01/29 06:07:13;;;;;;;1.83;1.73;;;14.20;57.10;;;;;;5072150;28;20087;-79
2023/01/29 06:09:39;;;;;;;2.50;2.30;;;14.20;57.10;;;;;;5075970;28;20024;-78
2023/01/29 06:12:06;;;;;;;2.20;1.92;;;14.20;56.90;;;;;;5075494;28;20368;-78
2023/01/29 06:14:32;;;;;;;3.55;2.55;;;14.20;57.00;;;;;;5075603;28;20017;-78
2023/01/29 06:16:58;;;;;;;2.58;2.35;;;14.20;57.00;;;;;;5075394;28;20494;-78
2023/01/29 06:19:24;;;;;;;2.78;2.55;;;14.20;56.80;;;;;;5075686;28;20025;-78
2023/01/29 06:21:50;;;;;;;2.65;1.70;;;14.20;56.80;;;;;;5075252;28;20166;-78
2023/01/29 06:24:16;;;;;;;2.50;2.30;;;14.20;56.90;;;;;;5075458;28;20037;-78
2023/01/29 06:26:42;;;;;;;3.20;2.90;;;14.20;56.90;;;;;;5075536;28;20023;-78
2023/01/29 06:29:08;;;;;;;2.75;2.22;;;14.20;56.70;;;;;;5075190;28;20031;-79
2023/01/29 06:31:34;;;;;;;3.35;2.40;;;14.20;56.90;;;;;;5075328;28;20020;-75
2023/01/29 06:34:00;;;;;;;3.53;2.75;;;14.10;56.80;;;;;;5075418;28;20112;-75
2023/01/29 06:36:26;;;;;;;2.78;2.50;;;14.20;56.90;;;;;;5075160;28;20344;-75
2023/01/29 06:38:51;;;;;;;3.35;2.70;;;14.20;56.80;;;;;;5075394;28;20029;-75
2023/01/29 06:41:18;;;;;;;2.75;2.55;;;14.20;56.90;;;;;;5075019;28;20402;-75
2023/01/29 06:43:45;;;;;;;3.78;2.90;;;14.20;56.80;;;;;;5075150;28;20028;-75
2023/01/29 06:46:12;;;;;;;2.45;2.22;;;14.20;56.60;;;;;;5075421;28;20027;-75
2023/01/29 06:48:38;;;;;;;3.80;3.15;;;14.10;56.70;;;;;;5074898;28;20039;-75
2023/01/29 06:51:06;;;;;;;2.67;2.42;;;14.20;56.70;;;;;;5075161;28;20020;-75
2023/01/29 06:53:33;;;;;;;2.50;2.30;;;14.20;56.70;;;;;;5075017;28;20025;-76
2023/01/29 06:56:00;;;;;;;2.53;2.28;;;14.10;56.70;;;;;;5074958;28;20021;-75
2023/01/29 06:58:26;;;;;;;3.05;2.40;;;14.10;56.70;;;;;;5075045;28;20044;-75
2023/01/29 07:00:51;;;;;;;2.40;2.20;;;14.10;56.70;;;;;;5074703;28;20079;-75
2023/01/29 07:03:17;;;;;;;2.60;2.40;;;14.10;56.80;;;;;;5074323;28;20024;-75
2023/01/29 07:05:49;;;;;;;2.75;2.55;;;14.10;56.70;;;;;;5074571;28;20490;-75
2023/01/29 07:08:15;;;;;;;3.35;3.05;;;14.10;56.60;;;;;;5074590;28;20033;-79
2023/01/29 07:10:41;;;;;;;2.92;2.70;;;14.10;56.50;;;;;;5074797;28;20024;-79
2023/01/29 07:13:07;;;;;;;3.55;3.25;;;14.20;56.70;;;;;;5074392;28;20085;-79
2023/01/29 07:15:34;;;;;;;3.30;3.00;;;14.10;56.50;;;;;;5074437;28;20025;-79
2023/01/29 07:18:04;;;;;;;3.42;2.92;;;14.20;56.40;;;;;;5074713;28;20095;-79
2023/01/29 07:20:30;;;;;;;5.35;3.40;;;14.10;56.30;;;;;;5073604;28;20017;-79
2023/01/29 07:22:57;;;;;;;2.88;2.30;;;14.20;56.40;;;;;;5074264;28;20036;-78
2023/01/29 07:25:24;;;;;;;4.00;3.10;;;14.10;56.50;;;;;;5074523;28;20023;-79
2023/01/29 07:27:50;;;;;;;3.33;2.58;;;14.20;56.50;;;;;;5074555;28;20036;-78
2023/01/29 07:30:16;;;;;;;3.70;2.67;;;14.20;56.50;;;;;;5074360;28;20025;-79
2023/01/29 07:32:42;;;;;;;4.43;3.20;;;14.10;56.40;;;;;;5074005;28;20033;-79
2023/01/29 07:35:09;;;;;;;3.28;2.97;;;14.10;56.40;;;;;;5074268;28;20027;-79
2023/01/29 07:37:35;;;;;;;3.30;3.00;;;14.10;56.40;;;;;;5074277;28;20028;-79
2023/01/29 07:40:03;;;;;;;4.38;2.95;;;14.10;56.40;;;;;;5074247;28;20021;-79
2023/01/29 07:42:30;;;;;;;5.40;3.33;;;14.10;56.40;;;;;;5074083;28;20024;-79
2023/01/29 07:44:56;;;;;;;3.80;2.90;;;14.10;56.30;;;;;;5073923;28;20505;-78
2023/01/29 07:47:22;;;;;;;3.88;2.97;;;14.20;57.00;;;;;;5073747;28;20467;-78
2023/01/29 07:49:48;;;;;;;4.45;3.45;;;14.10;56.40;;;;;;5073655;28;20036;-78
2023/01/29 07:52:14;;;;;;;5.68;3.38;;;14.10;56.30;;;;;;5074010;28;20021;-78
2023/01/29 07:54:40;;;;;;;3.45;3.10;;;14.10;56.20;;;;;;5073931;28;20027;-78
2023/01/29 07:57:06;;;;;;;3.88;3.35;;;14.10;56.30;;;;;;5073575;28;20378;-78
2023/01/29 07:59:32;;;;;;;4.10;3.60;;;14.10;56.40;;;;;;5073841;28;20074;-79
2023/01/29 08:01:58;;;;;;;3.47;3.17;;;14.10;56.30;;;;;;5073386;28;20121;-75
2023/01/29 08:04:24;;;;;;;3.67;2.58;;;14.10;56.10;;;;;;5073456;28;20028;-75
2023/01/29 08:06:50;;;;;;;2.72;2.47;;;14.10;56.20;;;;;;5073800;28;20095;-76
2023/01/29 08:09:16;;;;;;;3.45;2.90;;;14.10;56.10;;;;;;5073320;28;20440;-75
2023/01/29 08:11:42;;;;;;;3.30;2.92;;;14.10;56.00;;;;;;5073627;28;20017;-76
2023/01/29 08:14:08;;;;;;;5.97;3.65;;;14.10;56.70;;;;;;5073284;28;20452;-78
2023/01/29 08:16:34;;;;;;;5.60;3.78;;;14.10;55.80;;;;;;5073165;28;20020;-78
2023/01/29 08:19:01;;;;;;;3.15;2.80;;;14.10;55.80;;;;;;5073507;28;20047;-80
2023/01/29 08:21:27;;;;;;;4.28;3.50;;;14.10;56.20;;;;;;5073406;28;20048;-74
2023/01/29 08:23:53;;;;;;;4.07;3.25;;;14.10;56.30;;;;;;5072975;28;20470;-73
2023/01/29 08:26:19;;;;;;;5.63;3.40;;;14.10;56.50;;;;;;5073247;28;20021;-75
2023/01/29 08:28:45;;;;;;;5.00;3.53;;;14.10;56.70;;;;;;5072963;28;20025;-72
2023/01/29 08:31:13;;;;;;;4.22;3.45;;;14.10;56.60;;;;;;5072738;28;20479;-76
2023/01/29 08:33:39;;;;;;;5.43;3.38;;;14.10;56.60;;;;;;5073123;28;20035;-73
2023/01/29 08:36:05;;;;;;;3.78;3.25;;;14.10;56.40;;;;;;5072837;28;20016;-74
2023/01/29 08:38:31;;;;;;;3.53;3.05;;;14.10;56.50;;;;;;5072947;28;20020;-74
2023/01/29 08:40:56;;;;;;;3.85;3.10;;;14.10;56.50;;;;;;5072827;28;20498;-74
2023/01/29 08:43:22;;;;;;;3.97;3.42;;;14.10;56.50;;;;;;5072532;28;20122;-74
2023/01/29 08:45:48;;;;;;;4.25;3.33;;;14.10;56.50;;;;;;5072522;28;20025;-74
2023/01/29 08:48:13;;;;;;;7.07;3.17;;;14.10;56.60;;;;;;5072937;28;20031;-75
2023/01/29 08:50:39;;;;;;;4.35;3.28;;;14.10;56.50;;;;;;5072418;28;20027;-74
2023/01/29 08:53:06;;;;;;;4.97;2.80;;;14.10;57.20;;;;;;5072580;28;20479;-74
2023/01/29 08:55:35;;;;;;;6.28;3.30;;;14.10;56.60;;;;;;5072735;28;20024;-74
2023/01/29 08:58:04;;;;;;;6.22;3.60;;;14.10;56.50;;;;;;5072586;28;20494;-74
2023/01/29 09:00:31;;;;;;;4.43;3.80;;;14.10;56.40;;;;;;5072512;28;20045;-74
2023/01/29 09:02:58;;;;;;;6.03;3.83;;;14.10;57.00;;;;;;5072555;28;20425;-74
2023/01/29 09:05:24;;;;;;;5.07;3.70;;;14.10;56.30;;;;;;5072757;28;20024;-74
2023/01/29 09:07:50;;;;;;;4.68;3.00;;;14.10;56.40;;;;;;5072614;28;20437;-74
2023/01/29 09:10:16;;;;;;;3.78;3.20;;;14.10;56.30;;;;;;5072334;28;20100;-74
2023/01/29 09:12:42;;;;;;;4.85;3.50;;;14.10;56.20;;;;;;5072560;28;20398;-74
2023/01/29 09:15:09;;;;;;;4.88;3.50;;;14.10;56.30;;;;;;5072646;28;20023;-74
2023/01/29 09:17:35;;;;;;;3.63;3.10;;;14.10;56.20;;;;;;5072580;28;20383;-74
2023/01/29 09:20:01;;;;;;;6.00;3.05;;;14.10;56.20;;;;;;5072235;28;20038;-73
2023/01/29 09:22:27;;;;;;;7.93;4.03;;;14.10;56.20;;;;;;5072557;28;20430;-73
2023/01/29 09:24:53;;;;;;;4.07;3.25;;;14.00;56.60;;;;;;5072239;28;20131;-73
2023/01/29 09:27:18;;;;;;;3.95;3.30;;;14.00;56.10;;;;;;5072171;28;20103;-73
2023/01/29 09:29:44;;;;;;;5.78;3.10;;;14.00;56.10;;;;;;5072147;28;20108;-72
2023/01/29 09:32:10;;;;;;;4.55;4.10;;;14.00;56.00;;;;;;5072182;28;20472;-73
2023/01/29 09:34:35;;;;;;;4.93;3.72;;;14.00;55.80;;;;;;5072139;28;20029;-73
2023/01/29 09:37:01;;;;;;;5.35;3.50;;;14.00;55.80;;;;;;5072114;28;20391;-73
2023/01/29 09:39:26;;;;;;;3.60;3.30;;;14.00;55.90;;;;;;5072169;28;20082;-73
2023/01/29 09:42:14;;;;;;;4.80;3.90;;;14.00;56.00;;;;;;5072010;28;20056;-72
2023/01/29 09:45:11;;;;;;;5.10;4.40;;;14.00;55.80;;;;;;5076438;28;20119;-72
2023/01/29 09:47:37;;;;;;;4.35;3.40;;;14.00;55.70;;;;;;5076123;28;20024;-73
2023/01/29 09:50:14;;;;;;;5.03;3.95;;;14.00;55.90;;;;;;5077095;28;20036;-72
2023/01/29 09:52:47;;;;;;;3.63;3.33;;;14.00;55.70;;;;;;5076835;28;20020;-73
2023/01/29 09:55:25;;;;;;;4.10;3.60;;;13.90;55.80;;;;;;5076058;28;20570;-73
2023/01/29 09:57:54;;;;;;;4.32;3.92;;;13.90;55.80;;;;;;5076224;28;20392;-73
2023/01/29 10:00:29;;;;;;;6.65;4.15;;;13.90;55.70;;;;;;5075736;28;20132;-74
2023/01/29 10:03:33;;;;;;;5.22;3.83;;;13.90;55.50;;;;;;5075926;28;20037;-74
2023/01/29 10:05:59;;;;;;;4.88;3.47;;;13.90;55.50;;;;;;5075988;28;20036;-75
2023/01/29 10:08:54;;;;;;;5.30;3.85;;;13.90;55.70;;;;;;5075633;28;20392;-74
2023/01/29 10:11:25;;;;;;;4.25;3.55;;;13.90;55.60;;;;;;5075722;28;20513;-74
2023/01/29 10:13:58;;;;;;;3.40;3.03;;;13.90;55.60;;;;;;5075516;28;20028;-74
2023/01/29 10:16:58;;;;;;;4.18;3.72;;;13.90;55.70;;;;;;5075884;28;20021;-74
2023/01/29 10:19:36;;;;;;;5.43;4.20;;;13.90;55.70;;;;;;5053633;28;20032;-74
2023/01/29 10:22:21;;;;;;;4.35;3.35;;;13.80;55.70;;;;;;5075641;28;20036;-74
2023/01/29 10:24:59;;;;;;;4.47;3.60;;;13.80;55.60;;;;;;5075196;28;20033;-74
2023/01/29 10:27:31;;;;;;;3.53;3.22;;;13.80;55.70;;;;;;5075346;28;20036;-74
2023/01/29 10:29:59;;;;;;;5.72;4.45;;;13.80;55.70;;;;;;5075633;28;20025;-74
2023/01/29 10:32:25;;;;;;;4.10;3.67;;;13.80;55.60;;;;;;5075262;28;20028;-74
2023/01/29 10:34:58;;;;;;;4.43;3.90;;;13.80;55.70;;;;;;5075395;28;20040;-74
2023/01/29 10:37:40;;;;;;;5.32;4.57;;;13.70;55.70;;;;;;5075464;28;20024;-74
2023/01/29 10:40:17;;;;;;;4.20;3.70;;;13.80;55.40;;;;;;5075067;28;20497;-74
2023/01/29 10:42:56;;;;;;;3.88;3.53;;;13.80;55.60;;;;;;5075301;28;20025;-77
2023/01/29 10:45:49;;;;;;;5.47;4.00;;;13.80;55.70;;;;;;5079828;28;20028;-78
2023/01/29 10:48:36;;;;;;;7.20;4.60;;;13.80;55.60;;;;;;5064963;28;20150;-73
2023/01/29 10:51:10;;;;;;;4.88;3.72;;;13.80;55.50;;;;;;5075092;28;20039;-73
2023/01/29 10:54:02;;;;;;;7.95;5.25;;;13.80;55.60;;;;;;5074855;28;20511;-74
2023/01/29 10:56:33;;;;;;;6.18;5.22;;;13.80;55.40;;;;;;5074781;28;20086;-74
2023/01/29 10:59:27;;;;;;;8.30;5.88;;;13.70;55.30;;;;;;5074671;28;20020;-76
2023/01/29 11:01:58;;;;;;;6.38;4.80;;;13.70;55.20;;;;;;5074566;28;20127;-73
2023/01/29 11:04:27;;;;;;;7.18;5.18;;;13.70;55.40;;;;;;5074560;28;20119;-74
2023/01/29 11:06:53;;;;;;;6.55;5.15;;;13.70;55.40;;;;;;5074894;28;20024;-74
2023/01/29 11:09:33;;;;;;;5.85;4.40;;;13.70;55.50;;;;;;5074939;28;20025;-73
2023/01/29 11:12:03;;;;;;;8.38;5.40;;;13.70;55.60;;;;;;5074653;28;20025;-73
2023/01/29 11:14:33;;;;;;;6.40;5.37;;;13.70;55.40;;;;;;5074765;28;20016;-75
2023/01/29 11:16:59;;;;;;;9.60;5.32;;;13.70;55.40;;;;;;5074671;28;20380;-75
2023/01/29 11:19:52;;;;;;;6.72;5.45;;;13.60;55.40;;;;;;5074387;28;20027;-75
2023/01/29 11:22:20;;;;;;;8.48;5.15;;;13.60;55.40;;;;;;5070584;28;20162;-75
2023/01/29 11:25:14;;;;;;;8.10;4.97;;;13.60;55.50;;;;;;5074590;28;20044;-76
2023/01/29 11:27:48;;;;;;;9.60;4.95;;;13.60;55.60;;;;;;5074523;28;20033;-78
2023/01/29 11:30:30;;;;;;;4.40;3.97;;;13.60;56.30;;;;;;5074187;28;20048;-76
2023/01/29 11:33:17;;;;;;;6.47;4.45;;;13.60;55.80;;;;;;5074398;28;20391;-78
2023/01/29 11:35:43;;;;;;;6.30;4.68;;;13.30;55.60;;;;;;5074045;28;20016;-77
2023/01/29 11:38:15;;;;;;;6.32;5.25;;;13.60;55.80;;;;;;5073917;28;20028;-78
2023/01/29 11:40:41;;;;;;;5.80;5.00;;;13.50;55.60;;;;;;5074206;28;20025;-80
2023/01/29 11:43:31;;;;;;;7.30;5.10;;;13.50;55.70;;;;;;5074174;28;20352;-88
2023/01/29 11:46:03;;;;;;;7.15;5.15;;;13.50;55.70;;;;;;5061448;28;20028;-78
2023/01/29 11:48:47;;;;;;;4.80;4.25;;;13.50;55.80;;;;;;5073741;28;20028;-84
2023/01/29 11:51:33;;;;;;;5.57;4.70;;;13.50;55.80;;;;;;5074092;28;20048;-77
2023/01/29 11:54:02;;;;;;;6.53;4.75;;;13.50;55.70;;;;;;5073665;28;20017;-82
2023/01/29 11:56:32;;;;;;;7.40;4.80;;;13.50;55.70;;;;;;5073995;28;20027;-79
2023/01/29 11:59:03;;;;;;;6.28;5.15;;;13.50;55.80;;;;;;5055688;28;20022;-85
2023/01/29 12:01:32;;;;;;;7.55;5.15;;;13.50;63.40;;;;;;5073474;28;20105;-75
2023/01/29 12:03:59;;;;;;;4.90;4.47;;;13.50;55.90;;;;;;5073530;28;20040;-75
2023/01/29 12:06:36;;;;;;;7.50;4.60;;;13.50;55.90;;;;;;5073139;28;20040;-75
2023/01/29 12:09:10;;;;;;;5.13;4.60;;;13.50;56.10;;;;;;5073887;28;20394;-73
2023/01/29 12:11:36;;;;;;;5.03;4.30;;;13.40;56.60;;;;;;5073681;28;20387;-74
2023/01/29 12:14:04;;;;;;;5.95;5.25;;;13.50;56.00;;;;;;5073321;28;20474;-73
2023/01/29 12:16:39;;;;;;;6.80;5.38;;;13.40;56.00;;;;;;5073209;28;20024;-75
2023/01/29 12:19:15;;;;;;;6.35;4.80;;;13.40;56.00;;;;;;5073621;28;20111;-75
2023/01/29 12:21:56;;;;;;;5.68;4.80;;;13.40;56.10;;;;;;5073651;28;20340;-82
2023/01/29 12:24:44;;;;;;;5.82;5.22;;;13.40;56.20;;;;;;5073083;28;20083;-77
2023/01/29 12:27:16;;;;;;;6.18;5.10;;;13.40;56.80;;;;;;5073346;28;20024;-79
2023/01/29 12:29:58;;;;;;;5.47;4.90;;;13.40;56.20;;;;;;5073086;28;20487;-78
2023/01/29 12:32:38;;;;;;;5.50;5.00;;;13.40;56.10;;;;;;5072969;28;20510;-75
2023/01/29 12:35:22;;;;;;;7.10;5.33;;;13.40;56.20;;;;;;5073306;28;20028;-80
2023/01/29 12:37:54;;;;;;;7.40;5.68;;;13.40;56.20;;;;;;5073165;28;20263;-86
2023/01/29 12:40:23;;;;;;;5.82;5.13;;;13.30;56.20;;;;;;5072850;28;20036;-79
2023/01/29 12:42:55;;;;;;;6.75;5.60;;;13.40;57.00;;;;;;5073018;28;20096;-82
2023/01/29 12:45:24;;;;;;;6.18;5.25;;;13.30;56.10;;;;;;5072971;28;20108;-80
2023/01/29 12:47:58;;;;;;;6.90;5.57;;;13.30;56.20;;;;;;5073072;28;20021;-85
2023/01/29 12:50:31;;;;;;;6.70;5.05;;;13.30;56.00;;;;;;5073088;28;20021;-81
2023/01/29 12:53:24;;;;;;;5.70;4.70;;;13.30;56.20;;;;;;5073033;28;20025;-76
2023/01/29 12:55:56;;;;;;;6.07;4.47;;;13.30;56.10;;;;;;5072638;28;20013;-77
2023/01/29 12:58:34;;;;;;;5.90;4.85;;;13.30;56.30;;;;;;5072681;28;20029;-78
2023/01/29 13:01:12;;;;;;;5.60;4.55;;;13.30;56.40;;;;;;5072591;28;20416;-78
2023/01/29 13:04:00;;;;;;;5.15;4.63;;;13.30;56.30;;;;;;5072577;28;20032;-77
2023/01/29 13:06:41;;;;;;;7.68;5.00;;;13.30;56.30;;;;;;5072368;28;20086;-77
2023/01/29 13:09:14;;;;;;;5.72;4.18;;;13.30;56.30;;;;;;5072685;28;20425;-77
2023/01/29 13:11:45;;;;;;;4.45;4.05;;;13.30;56.30;;;;;;5072663;28;20031;-78
2023/01/29 13:14:30;;;;;;;5.93;4.88;;;13.30;56.40;;;;;;5072371;28;20024;-78
2023/01/29 13:17:22;;;;;;;6.00;4.45;;;13.20;56.30;;;;;;5071734;28;20028;-79
2023/01/29 13:19:56;;;;;;;4.05;3.65;;;13.20;56.40;;;;;;5072307;28;20120;-79
2023/01/29 13:22:32;;;;;;;4.90;4.40;;;13.20;56.30;;;;;;5072368;28;20020;-76
2023/01/29 13:24:59;;;;;;;5.68;4.22;;;13.20;56.40;;;;;;5072434;28;20112;-77
2023/01/29 13:27:31;;;;;;;6.53;4.32;;;13.20;56.50;;;;;;5072547;28;20040;-76
2023/01/29 13:29:58;;;;;;;6.43;4.95;;;13.20;56.50;;;;;;5072252;28;20075;-77
2023/01/29 13:32:27;;;;;;;6.25;4.47;;;13.20;56.30;;;;;;5072526;28;20020;-77
2023/01/29 13:35:03;;;;;;;6.07;4.78;;;13.20;56.30;;;;;;5072202;28;20103;-77
2023/01/29 13:37:32;;;;;;;5.70;4.38;;;13.20;56.40;;;;;;5072293;28;20028;-75
2023/01/29 13:40:00;;;;;;;5.90;4.75;;;13.20;56.40;;;;;;5072549;28;20107;-76